Weer

Current Metar

EHAM: EHAM 261555Z 25009KT 9999 FEW008 SCT012 FEW035TCU 21/17 Q1009 NOSIG
EHRD: EHRD 261555Z AUTO 26003KT 210V330 8000 -TSRA SCT013 BKN015CB 20/17 Q1009 TEMPO 6000 TSRA BKN012 SCT018CB
EHGG: EHGG 261555Z AUTO 20007KT 150V230 9999 FEW044 23/16 Q1008 NOSIG
EHEH: EHEH 261555Z AUTO 22010KT 190V280 9999 BKN110 BKN180 22/16 Q1010 BLU TEMPO 22010G20KT 4500 SHRA TSRA SCT010 SCT020CB BKN035
EHBK: EHBK 261555Z AUTO 25008KT 190V310 9999 FEW041 23/15 Q1010 TEMPO 6000 SHRA SCT030CB

Search METAR


Wind Charts

+ 0600h
FL100 FL180 FL240 FL300 FL340

+ 1200h
FL100 FL180 FL240 FL300 FL340

+ 1800h
FL100 FL180 FL240 FL300 FL340

+ 2400h
FL100 FL180 FL240 FL300 FL340

Europe & Africa charts only, updated daily.

 

Weather Services

MET Office